Time;durP1;ratioP1;P1;durP2;ratioP2;P2;SDS_P1;SDS_P2;PMS_P1;PMS_P2;Temp;Humidity;BMP_temperature;BMP_pressure;BME280_temperature;BME280_humidity;BME280_pressure;Samples;Min_cycle;Max_cycle;Signal;HPM_P1;HPM_P2
2020/12/31 00:02:14;;;;;;;22.88;11.50;;;3.80;99.90;;;;;;5086770;28;20920;-53
2020/12/31 00:04:40;;;;;;;22.98;12.50;;;3.80;99.90;;;;;;5082448;28;20929;-51
2020/12/31 00:07:06;;;;;;;26.70;12.95;;;3.80;99.90;;;;;;5087569;28;20024;-49
2020/12/31 00:09:33;;;;;;;26.25;14.00;;;3.80;99.90;;;;;;5087737;28;20058;-53
2020/12/31 00:11:59;;;;;;;22.73;13.32;;;3.80;99.90;;;;;;5088143;28;20396;-55
2020/12/31 00:14:25;;;;;;;23.17;12.07;;;3.80;99.90;;;;;;5088107;28;20115;-54
2020/12/31 00:16:51;;;;;;;21.73;12.35;;;3.70;99.90;;;;;;5087920;28;20048;-55
2020/12/31 00:19:16;;;;;;;21.10;12.23;;;3.80;99.90;;;;;;5088034;28;20357;-54
2020/12/31 00:21:42;;;;;;;22.20;12.60;;;3.70;99.90;;;;;;5087964;28;20098;-55
2020/12/31 00:24:08;;;;;;;25.13;13.70;;;3.70;99.90;;;;;;5088131;28;20028;-52
2020/12/31 00:26:34;;;;;;;21.65;12.60;;;3.70;99.90;;;;;;5088358;28;20068;-54
2020/12/31 00:29:00;;;;;;;28.55;13.77;;;3.70;99.90;;;;;;5088102;28;20491;-55
2020/12/31 00:31:25;;;;;;;27.92;13.70;;;3.70;99.90;;;;;;5086624;28;20028;-54
2020/12/31 00:33:51;;;;;;;25.90;13.40;;;3.70;99.90;;;;;;5088066;28;20032;-53
2020/12/31 00:36:17;;;;;;;23.17;14.00;;;3.70;99.90;;;;;;5088055;28;20051;-50
2020/12/31 00:38:43;;;;;;;21.02;11.82;;;3.70;99.90;;;;;;5088345;28;20434;-53
2020/12/31 00:41:09;;;;;;;21.52;11.45;;;3.80;99.90;;;;;;5086847;28;20032;-55
2020/12/31 00:43:34;;;;;;;21.10;13.05;;;3.80;99.90;;;;;;5088494;28;20514;-55
2020/12/31 00:46:00;;;;;;;20.38;11.48;;;3.80;99.90;;;;;;5087413;28;20518;-52
2020/12/31 00:48:26;;;;;;;22.38;12.55;;;3.80;99.90;;;;;;5088110;28;20097;-52
2020/12/31 00:50:52;;;;;;;24.92;13.48;;;3.80;99.90;;;;;;5087277;28;20051;-52
2020/12/31 00:53:18;;;;;;;24.67;13.38;;;3.80;99.90;;;;;;5088643;28;20101;-53
2020/12/31 00:55:43;;;;;;;19.42;11.90;;;3.70;99.90;;;;;;5087993;28;20068;-53
2020/12/31 00:58:09;;;;;;;19.88;12.52;;;3.70;99.90;;;;;;5087920;28;20044;-51
2020/12/31 01:00:35;;;;;;;19.50;12.25;;;3.70;99.90;;;;;;5087240;28;20089;-53
2020/12/31 01:03:04;;;;;;;20.52;11.65;;;3.70;99.90;;;;;;5088255;28;20039;-51
2020/12/31 01:05:30;;;;;;;21.55;13.07;;;3.70;99.90;;;;;;5085870;28;20028;-53
2020/12/31 01:07:56;;;;;;;23.17;12.32;;;3.70;99.90;;;;;;5087915;28;20108;-52
2020/12/31 01:10:22;;;;;;;21.00;11.68;;;3.70;99.90;;;;;;5087901;28;20413;-52
2020/12/31 01:12:47;;;;;;;20.42;12.13;;;3.80;99.90;;;;;;5088536;28;20032;-55
2020/12/31 01:15:13;;;;;;;23.83;13.13;;;3.80;99.90;;;;;;5087186;28;20028;-54
2020/12/31 01:17:39;;;;;;;26.85;13.63;;;3.80;99.90;;;;;;5087514;28;20527;-53
2020/12/31 01:20:07;;;;;;;34.05;15.20;;;3.80;99.90;;;;;;5087390;28;20032;-50
2020/12/31 01:22:32;;;;;;;29.95;14.75;;;3.80;99.90;;;;;;5087644;28;20063;-55
2020/12/31 01:24:58;;;;;;;33.28;15.85;;;3.80;99.90;;;;;;5089516;28;20480;-50
2020/12/31 01:27:24;;;;;;;26.05;13.48;;;3.80;99.90;;;;;;5091656;28;20036;-53
2020/12/31 01:29:50;;;;;;;25.05;13.18;;;3.80;99.90;;;;;;5090559;28;20441;-52
2020/12/31 01:32:16;;;;;;;23.75;13.25;;;3.80;99.90;;;;;;5089017;28;20047;-55
2020/12/31 01:34:41;;;;;;;18.88;10.77;;;3.80;99.90;;;;;;5091406;28;20495;-55
2020/12/31 01:37:07;;;;;;;19.50;11.07;;;3.80;99.90;;;;;;5091572;28;20085;-54
2020/12/31 01:39:33;;;;;;;17.67;10.00;;;3.80;99.90;;;;;;5091567;28;20247;-50
2020/12/31 01:42:03;;;;;;;18.27;10.23;;;3.90;99.90;;;;;;5091475;28;20202;-54
2020/12/31 01:44:29;;;;;;;19.27;10.60;;;3.80;99.90;;;;;;5091404;28;20028;-56
2020/12/31 01:47:01;;;;;;;26.30;12.10;;;3.80;99.90;;;;;;5091382;28;20043;-54
2020/12/31 01:49:29;;;;;;;44.78;16.92;;;3.80;99.90;;;;;;5091243;28;20173;-55
2020/12/31 01:51:57;;;;;;;32.50;14.07;;;3.80;99.90;;;;;;5091591;28;20035;-52
2020/12/31 01:54:25;;;;;;;33.47;14.57;;;3.80;99.90;;;;;;5091614;28;20154;-56
2020/12/31 01:56:54;;;;;;;34.47;13.73;;;3.80;99.90;;;;;;5091505;28;20052;-52
2020/12/31 01:59:19;;;;;;;34.63;13.63;;;3.80;99.90;;;;;;5090466;28;20073;-53
2020/12/31 02:01:47;;;;;;;32.13;13.20;;;3.80;99.90;;;;;;5089862;28;20036;-57
2020/12/31 02:04:13;;;;;;;33.30;12.70;;;3.80;99.90;;;;;;5089968;28;20371;-53
2020/12/31 02:06:39;;;;;;;21.75;10.00;;;3.80;99.90;;;;;;5090132;28;20066;-56
2020/12/31 02:09:05;;;;;;;18.92;8.30;;;3.80;99.90;;;;;;5090188;28;20028;-55
2020/12/31 02:11:31;;;;;;;24.00;10.32;;;3.70;99.90;;;;;;5090394;28;20356;-55
2020/12/31 02:13:58;;;;;;;28.05;12.18;;;3.70;99.90;;;;;;5090469;28;20032;-51
2020/12/31 02:16:27;;;;;;;25.02;10.13;;;3.70;99.90;;;;;;5090704;28;20108;-56
2020/12/31 02:18:59;;;;;;;18.48;8.20;;;3.70;99.90;;;;;;5091138;28;20048;-56
2020/12/31 02:21:27;;;;;;;21.98;8.73;;;3.80;99.90;;;;;;5090774;28;20040;-56
2020/12/31 02:23:54;;;;;;;6.75;4.22;;;3.80;99.90;;;;;;5090794;28;20396;-49
2020/12/31 02:26:25;;;;;;;17.83;7.80;;;3.80;99.90;;;;;;5090650;28;20093;-54
2020/12/31 02:28:52;;;;;;;16.10;7.82;;;3.90;99.90;;;;;;5090342;28;20438;-51
2020/12/31 02:31:18;;;;;;;14.23;5.88;;;3.90;99.90;;;;;;5090560;28;20028;-52
2020/12/31 02:33:49;;;;;;;10.68;5.95;;;3.80;99.90;;;;;;5090401;28;20039;-52
2020/12/31 02:36:16;;;;;;;17.52;5.43;;;3.90;99.90;;;;;;5090508;28;20464;-50
2020/12/31 02:38:42;;;;;;;14.90;5.80;;;3.90;99.90;;;;;;5090273;28;20491;-54
2020/12/31 02:43:43;;;;;;;10.70;5.00;;;3.80;99.90;;;;;;4849490;22;20448;-49
2020/12/31 02:46:13;;;;;;;8.18;4.15;;;3.80;99.90;;;;;;5030102;28;20037;-53
2020/12/31 02:48:40;;;;;;;6.40;3.90;;;3.80;99.90;;;;;;5030418;28;20053;-51
2020/12/31 02:51:06;;;;;;;7.93;4.25;;;3.80;99.90;;;;;;5030350;28;20041;-50
2020/12/31 02:53:33;;;;;;;8.93;4.47;;;3.70;99.90;;;;;;5030441;28;20517;-54
2020/12/31 02:55:59;;;;;;;6.85;3.20;;;3.70;99.90;;;;;;5030358;28;20327;-51
2020/12/31 02:58:25;;;;;;;7.20;4.15;;;3.70;99.90;;;;;;5030046;28;20056;-51
2020/12/31 03:00:51;;;;;;;7.60;3.53;;;3.70;99.90;;;;;;5030104;28;20523;-51
2020/12/31 03:03:17;;;;;;;8.38;3.95;;;3.70;99.90;;;;;;5029796;28;20354;-56
2020/12/31 03:05:43;;;;;;;5.70;2.95;;;3.70;99.90;;;;;;5029959;28;20025;-54
2020/12/31 03:08:09;;;;;;;7.63;3.55;;;3.70;99.90;;;;;;5028242;28;20035;-54
2020/12/31 03:10:35;;;;;;;6.57;3.67;;;3.70;99.90;;;;;;5030352;28;20032;-56
2020/12/31 03:13:01;;;;;;;9.20;3.92;;;3.70;99.90;;;;;;5030018;28;20025;-54
2020/12/31 03:15:26;;;;;;;6.75;3.08;;;3.70;99.90;;;;;;5029908;28;20034;-53
2020/12/31 03:17:52;;;;;;;8.15;3.58;;;3.70;99.90;;;;;;5029577;28;20132;-54
2020/12/31 03:20:18;;;;;;;4.95;2.70;;;3.60;99.90;;;;;;5029443;28;20033;-52
2020/12/31 03:22:44;;;;;;;5.43;2.45;;;3.60;99.90;;;;;;5029588;28;20111;-50
2020/12/31 03:25:10;;;;;;;4.95;3.10;;;3.60;99.90;;;;;;5029643;28;20033;-56
2020/12/31 03:27:36;;;;;;;7.13;2.63;;;3.60;99.90;;;;;;5029192;28;20025;-53
2020/12/31 03:30:03;;;;;;;5.07;3.03;;;3.60;99.90;;;;;;5029696;28;20029;-47
2020/12/31 03:32:29;;;;;;;7.68;2.80;;;3.50;99.90;;;;;;5029489;28;20112;-51
2020/12/31 03:34:55;;;;;;;4.38;2.85;;;3.50;99.90;;;;;;5029294;28;20171;-52
2020/12/31 03:37:24;;;;;;;4.43;2.30;;;3.50;99.90;;;;;;5029347;28;20451;-50
2020/12/31 03:39:50;;;;;;;4.88;2.53;;;3.50;99.90;;;;;;5029072;28;20433;-52
2020/12/31 03:42:15;;;;;;;5.53;2.45;;;3.50;99.90;;;;;;5028974;28;20068;-51
2020/12/31 03:44:41;;;;;;;4.78;2.45;;;3.50;99.90;;;;;;5029244;28;20489;-56
2020/12/31 03:47:07;;;;;;;6.07;2.78;;;3.50;99.90;;;;;;5028782;28;20021;-49
2020/12/31 03:49:33;;;;;;;4.97;2.75;;;3.50;99.90;;;;;;5028938;28;20065;-54
2020/12/31 03:51:58;;;;;;;8.77;2.42;;;3.50;99.90;;;;;;5028881;28;20057;-53
2020/12/31 03:54:24;;;;;;;3.35;1.83;;;3.50;99.90;;;;;;5028768;28;20041;-51
2020/12/31 03:56:50;;;;;;;5.93;2.40;;;3.50;99.90;;;;;;5028776;28;20033;-54
2020/12/31 03:59:15;;;;;;;5.60;2.35;;;3.50;99.90;;;;;;5028900;28;20455;-54
2020/12/31 04:01:41;;;;;;;2.28;1.33;;;3.50;99.90;;;;;;5028952;28;20029;-55
2020/12/31 04:04:07;;;;;;;4.47;2.30;;;3.40;99.90;;;;;;5028965;28;20424;-54
2020/12/31 04:06:33;;;;;;;4.75;2.40;;;3.40;99.90;;;;;;5028595;28;20121;-56
2020/12/31 04:08:58;;;;;;;3.58;1.92;;;3.40;99.90;;;;;;5028897;28;20041;-55
2020/12/31 04:11:24;;;;;;;4.85;2.53;;;3.40;99.90;;;;;;5028575;28;20485;-54
2020/12/31 04:13:50;;;;;;;3.80;2.05;;;3.40;99.90;;;;;;5028544;28;20083;-52
2020/12/31 04:16:16;;;;;;;3.15;1.73;;;3.50;99.90;;;;;;5028911;28;20052;-52
2020/12/31 04:18:42;;;;;;;3.70;1.88;;;3.50;99.90;;;;;;5028658;28;20069;-51
2020/12/31 04:21:07;;;;;;;6.05;2.65;;;3.40;99.90;;;;;;5028759;28;20115;-50
2020/12/31 04:23:33;;;;;;;3.95;1.75;;;3.40;99.90;;;;;;5028520;28;20037;-50
2020/12/31 04:25:59;;;;;;;4.03;2.22;;;3.40;99.90;;;;;;5028370;28;20037;-50
2020/12/31 04:28:25;;;;;;;7.78;2.17;;;3.50;99.90;;;;;;5028689;28;20069;-53
2020/12/31 04:30:51;;;;;;;4.65;2.08;;;3.50;99.90;;;;;;5028471;28;20033;-50
2020/12/31 04:33:18;;;;;;;4.40;2.20;;;3.50;99.90;;;;;;5028391;28;20492;-56
2020/12/31 04:35:44;;;;;;;3.72;2.40;;;3.50;99.90;;;;;;5028482;28;20460;-55
2020/12/31 04:38:10;;;;;;;5.30;2.25;;;3.50;99.90;;;;;;5028278;28;20441;-49
2020/12/31 04:40:44;;;;;;;4.55;2.00;;;3.60;99.90;;;;;;5028330;28;20046;-54
2020/12/31 04:43:11;;;;;;;3.55;2.03;;;3.60;99.90;;;;;;5028310;28;20061;-51
2020/12/31 04:45:39;;;;;;;4.10;2.15;;;3.60;99.90;;;;;;5028391;28;20072;-51
2020/12/31 04:48:33;;;;;;;4.90;1.83;;;3.60;99.90;;;;;;5028417;28;20423;-53
2020/12/31 04:51:05;;;;;;;4.45;2.03;;;3.60;99.90;;;;;;5028105;28;20052;-52
2020/12/31 04:53:31;;;;;;;4.13;1.63;;;3.60;99.90;;;;;;5028485;28;20033;-50
2020/12/31 04:56:00;;;;;;;4.72;2.15;;;3.60;99.90;;;;;;5028437;28;20414;-51
2020/12/31 04:58:26;;;;;;;2.78;1.73;;;3.60;99.90;;;;;;5028398;28;20088;-56
2020/12/31 05:00:51;;;;;;;2.67;1.80;;;3.60;99.90;;;;;;5030847;28;20037;-50
2020/12/31 05:03:17;;;;;;;4.72;1.73;;;3.60;99.90;;;;;;5032378;28;20040;-53
2020/12/31 05:05:45;;;;;;;3.63;1.88;;;3.60;99.90;;;;;;5031611;28;20121;-52
2020/12/31 05:08:11;;;;;;;3.55;1.83;;;3.60;99.90;;;;;;5031967;28;20107;-47
2020/12/31 05:10:38;;;;;;;3.38;2.00;;;3.50;99.90;;;;;;5032029;28;20033;-54
2020/12/31 05:13:05;;;;;;;5.15;1.60;;;3.60;99.90;;;;;;5031795;28;20369;-54
2020/12/31 05:15:39;;;;;;;4.30;1.55;;;3.60;99.90;;;;;;5032020;28;20413;-55
2020/12/31 05:18:19;;;;;;;2.53;1.35;;;3.60;99.90;;;;;;5031696;28;20056;-50
2020/12/31 05:20:46;;;;;;;3.30;1.50;;;3.60;99.90;;;;;;5031851;28;20064;-52
2020/12/31 05:23:14;;;;;;;3.95;1.65;;;3.60;99.90;;;;;;5031696;28;20104;-50
2020/12/31 05:25:40;;;;;;;2.10;1.60;;;3.60;99.90;;;;;;5031765;28;20061;-51
2020/12/31 05:28:27;;;;;;;3.40;1.67;;;3.60;99.90;;;;;;5031704;28;20080;-51
2020/12/31 05:30:55;;;;;;;3.50;1.45;;;3.60;99.90;;;;;;5031732;28;20465;-50
2020/12/31 05:33:41;;;;;;;8.32;1.83;;;3.60;99.90;;;;;;5031728;28;20148;-55
2020/12/31 05:36:36;;;;;;;3.97;1.67;;;3.60;99.90;;;;;;5031548;28;20084;-55
2020/12/31 05:39:05;;;;;;;2.83;1.67;;;3.60;99.90;;;;;;5014133;28;20045;-49
2020/12/31 05:41:32;;;;;;;3.78;1.52;;;3.70;99.90;;;;;;5031481;28;20037;-53
2020/12/31 05:44:01;;;;;;;3.92;2.03;;;3.70;99.90;;;;;;5031625;28;20145;-53
2020/12/31 05:46:31;;;;;;;4.72;2.00;;;3.70;99.90;;;;;;5031246;28;20520;-55
2020/12/31 05:48:58;;;;;;;2.90;1.92;;;3.70;99.90;;;;;;5031144;28;20029;-55
2020/12/31 05:51:29;;;;;;;7.20;2.47;;;3.70;99.90;;;;;;5031002;28;20091;-50
2020/12/31 05:54:13;;;;;;;5.25;1.75;;;3.70;99.90;;;;;;5031365;28;20029;-48
2020/12/31 05:56:43;;;;;;;4.45;1.95;;;3.70;99.90;;;;;;5031065;28;20037;-53
2020/12/31 05:59:22;;;;;;;5.50;2.15;;;3.70;99.90;;;;;;5031054;28;20048;-52
2020/12/31 06:02:00;;;;;;;7.25;2.38;;;3.70;99.90;;;;;;5030860;28;20453;-52
2020/12/31 06:04:58;;;;;;;4.53;2.38;;;3.70;99.90;;;;;;5031163;28;20397;-53
2020/12/31 06:07:34;;;;;;;5.78;3.05;;;3.80;99.90;;;;;;5026877;28;20030;-53
2020/12/31 06:10:05;;;;;;;4.90;2.65;;;3.80;99.90;;;;;;5030885;28;20345;-56
2020/12/31 06:12:46;;;;;;;5.50;2.60;;;3.80;99.90;;;;;;5030926;28;20039;-53
2020/12/31 06:15:19;;;;;;;7.18;2.60;;;3.80;99.90;;;;;;5030974;28;20069;-52
2020/12/31 06:17:47;;;;;;;6.88;3.08;;;3.70;99.90;;;;;;5030922;28;20037;-56
2020/12/31 06:20:18;;;;;;;4.60;2.45;;;3.80;99.90;;;;;;5030769;28;20118;-53
2020/12/31 06:23:06;;;;;;;4.43;2.28;;;3.80;99.90;;;;;;5030411;28;20439;-53
2020/12/31 06:25:42;;;;;;;5.28;2.67;;;3.80;99.90;;;;;;5030513;28;20120;-49
2020/12/31 06:28:11;;;;;;;5.50;3.17;;;3.80;99.90;;;;;;5030602;28;20104;-56
2020/12/31 06:30:39;;;;;;;5.68;3.10;;;3.80;99.90;;;;;;5030408;28;20047;-54
2020/12/31 06:33:41;;;;;;;5.63;2.47;;;3.80;99.90;;;;;;5030213;28;20103;-52
2020/12/31 06:36:07;;;;;;;4.72;2.67;;;3.80;99.90;;;;;;4949326;29;20039;-55
2020/12/31 06:38:39;;;;;;;6.63;3.17;;;3.80;99.90;;;;;;4949419;29;20122;-49
2020/12/31 06:41:26;;;;;;;6.90;4.20;;;3.80;99.90;;;;;;4949408;29;20042;-50
2020/12/31 06:44:05;;;;;;;7.72;3.83;;;3.80;99.90;;;;;;4949243;29;20215;-52
2020/12/31 06:46:47;;;;;;;9.45;3.80;;;3.90;99.90;;;;;;4949421;29;20395;-52
2020/12/31 06:49:13;;;;;;;8.95;4.25;;;3.90;99.90;;;;;;4949408;29;20031;-53
2020/12/31 06:51:39;;;;;;;8.02;4.40;;;3.90;99.90;;;;;;4949352;29;20529;-55
2020/12/31 06:54:05;;;;;;;6.15;3.95;;;3.80;99.90;;;;;;4949084;29;20097;-50
2020/12/31 06:56:48;;;;;;;10.98;4.85;;;3.80;99.90;;;;;;4949146;29;20027;-49
2020/12/31 06:59:33;;;;;;;9.02;5.30;;;3.80;99.90;;;;;;4949259;29;20125;-54
2020/12/31 07:02:01;;;;;;;8.97;4.83;;;3.80;99.90;;;;;;4947903;29;20039;-52
2020/12/31 07:04:34;;;;;;;9.40;4.93;;;3.80;99.90;;;;;;4947238;29;20256;-54
2020/12/31 07:07:09;;;;;;;12.93;5.50;;;3.80;99.90;;;;;;4949130;29;20504;-54
2020/12/31 07:09:36;;;;;;;10.13;5.67;;;3.70;99.90;;;;;;4948481;29;20035;-54
2020/12/31 07:12:07;;;;;;;8.27;4.72;;;3.70;99.90;;;;;;4959054;28;20039;-53
2020/12/31 07:14:35;;;;;;;10.23;5.47;;;3.70;99.90;;;;;;5029576;28;20045;-52
2020/12/31 07:17:09;;;;;;;11.93;5.68;;;3.70;99.90;;;;;;5028712;28;20029;-50
2020/12/31 07:19:45;;;;;;;9.63;5.35;;;3.80;99.90;;;;;;5028871;28;20084;-52
2020/12/31 07:22:11;;;;;;;17.23;7.55;;;3.80;99.90;;;;;;5009438;28;20112;-51
2020/12/31 07:24:55;;;;;;;10.38;5.18;;;3.90;99.90;;;;;;5023383;28;20455;-50
2020/12/31 07:27:29;;;;;;;10.70;5.88;;;3.90;99.90;;;;;;5029196;28;20048;-53
2020/12/31 07:30:11;;;;;;;12.95;6.72;;;3.80;99.90;;;;;;5027991;28;20033;-52
2020/12/31 07:32:50;;;;;;;13.07;7.10;;;3.80;99.90;;;;;;5028760;28;20141;-56
2020/12/31 07:35:32;;;;;;;11.60;6.30;;;3.90;99.90;;;;;;5027699;28;20067;-53
2020/12/31 07:38:01;;;;;;;11.00;5.72;;;3.80;99.90;;;;;;5029303;28;20052;-50
2020/12/31 07:40:30;;;;;;;14.65;6.10;;;3.90;99.90;;;;;;5029370;28;20037;-53
2020/12/31 07:42:56;;;;;;;14.48;6.20;;;4.00;99.90;;;;;;5029107;28;20049;-54
2020/12/31 07:45:23;;;;;;;8.02;5.00;;;4.00;99.90;;;;;;5029079;28;20067;-56
2020/12/31 07:47:51;;;;;;;9.13;5.47;;;4.10;99.90;;;;;;5029107;28;20069;-53
2020/12/31 07:50:18;;;;;;;10.80;5.72;;;4.10;99.90;;;;;;5028805;28;20025;-52
2020/12/31 07:52:44;;;;;;;10.23;5.18;;;4.10;99.90;;;;;;5029113;28;20056;-54
2020/12/31 07:55:10;;;;;;;11.65;5.25;;;4.20;99.90;;;;;;5028854;28;20033;-53
2020/12/31 07:57:40;;;;;;;12.50;4.75;;;4.20;99.90;;;;;;5029038;28;20112;-53
2020/12/31 08:00:07;;;;;;;8.80;4.97;;;4.30;99.90;;;;;;5029076;28;20519;-50
2020/12/31 08:02:33;;;;;;;7.90;4.75;;;4.30;99.90;;;;;;5028853;28;20033;-52
2020/12/31 08:05:09;;;;;;;13.00;5.65;;;4.30;99.90;;;;;;5028673;28;20548;-55
2020/12/31 08:07:35;;;;;;;10.43;4.80;;;4.40;99.90;;;;;;5028591;28;20037;-54
2020/12/31 08:10:01;;;;;;;11.75;5.72;;;4.40;99.90;;;;;;5028737;28;20033;-54
2020/12/31 08:12:27;;;;;;;11.75;6.07;;;4.40;99.90;;;;;;5028689;28;20116;-51
2020/12/31 08:14:53;;;;;;;13.73;6.00;;;4.50;99.90;;;;;;5028509;28;20033;-54
2020/12/31 08:17:19;;;;;;;10.57;6.55;;;4.60;99.90;;;;;;5028648;28;20041;-51
2020/12/31 08:19:45;;;;;;;8.77;5.38;;;4.60;99.90;;;;;;5028536;28;20040;-52
2020/12/31 08:22:23;;;;;;;9.15;5.57;;;4.70;99.90;;;;;;5027063;28;20357;-54
2020/12/31 08:24:58;;;;;;;12.57;6.53;;;4.80;99.90;;;;;;5028523;28;20552;-51
2020/12/31 08:27:24;;;;;;;12.02;6.57;;;4.90;99.90;;;;;;5028627;28;20134;-54
2020/12/31 08:29:53;;;;;;;11.70;6.25;;;5.00;99.90;;;;;;5028359;28;20177;-53
2020/12/31 08:32:24;;;;;;;10.75;6.63;;;5.10;99.90;;;;;;5028403;28;20036;-54
2020/12/31 08:34:55;;;;;;;11.13;6.03;;;5.20;99.90;;;;;;5031199;28;20041;-52
2020/12/31 08:37:26;;;;;;;8.48;5.40;;;5.30;99.90;;;;;;5032397;28;20095;-56
2020/12/31 08:39:53;;;;;;;10.05;5.93;;;5.40;99.90;;;;;;5032396;28;20175;-55
2020/12/31 08:42:21;;;;;;;11.60;5.57;;;5.40;99.90;;;;;;5032080;28;20597;-52
2020/12/31 08:44:52;;;;;;;9.07;5.18;;;5.40;99.90;;;;;;5032548;28;20033;-56
2020/12/31 08:47:25;;;;;;;11.25;6.63;;;5.50;99.90;;;;;;5032558;28;20053;-53
2020/12/31 08:49:56;;;;;;;10.30;6.43;;;5.60;99.90;;;;;;5032683;28;20040;-54
2020/12/31 08:52:26;;;;;;;12.45;6.57;;;5.60;99.90;;;;;;5032078;28;20030;-54
2020/12/31 08:55:06;;;;;;;10.38;4.90;;;5.70;99.90;;;;;;5032430;28;20041;-54
2020/12/31 08:57:32;;;;;;;11.63;5.90;;;5.70;99.90;;;;;;5032022;28;20038;-55
2020/12/31 08:59:57;;;;;;;9.23;5.75;;;5.70;99.90;;;;;;5032275;28;20079;-56
2020/12/31 09:02:23;;;;;;;10.43;5.10;;;5.80;99.90;;;;;;5032341;28;20483;-53
2020/12/31 09:05:13;;;;;;;7.90;4.65;;;5.80;99.90;;;;;;5032273;28;20456;-51
2020/12/31 09:07:40;;;;;;;6.70;3.95;;;5.80;99.90;;;;;;5031932;28;20021;-52
2020/12/31 09:10:17;;;;;;;7.70;4.18;;;5.90;99.90;;;;;;5031902;28;20033;-54
2020/12/31 09:12:43;;;;;;;5.90;3.85;;;5.90;99.90;;;;;;5031855;28;20525;-51
2020/12/31 09:15:20;;;;;;;6.70;3.60;;;5.90;99.90;;;;;;5031890;28;20045;-52
2020/12/31 09:17:46;;;;;;;5.35;2.80;;;5.90;99.90;;;;;;5031498;28;20038;-53
2020/12/31 09:20:27;;;;;;;8.25;2.70;;;5.90;99.90;;;;;;5029274;28;20034;-52
2020/12/31 09:22:53;;;;;;;5.18;2.88;;;6.10;99.90;;;;;;5011754;28;20057;-50
2020/12/31 09:25:19;;;;;;;6.30;3.80;;;6.10;99.90;;;;;;5021129;28;20037;-51
2020/12/31 09:27:45;;;;;;;6.82;2.40;;;6.20;99.90;;;;;;5031272;28;20343;-51
2020/12/31 09:30:12;;;;;;;8.35;3.17;;;6.20;99.90;;;;;;5031330;28;20029;-55
2020/12/31 09:32:39;;;;;;;8.13;4.32;;;6.20;99.90;;;;;;5031364;28;20033;-50
2020/12/31 09:35:06;;;;;;;10.77;4.40;;;6.30;99.90;;;;;;5028984;28;20025;-51
2020/12/31 09:38:04;;;;;;;13.63;4.15;;;6.30;99.90;;;;;;5018476;28;20097;-53
2020/12/31 09:40:30;;;;;;;9.57;4.88;;;6.30;99.90;;;;;;4997007;28;20050;-50
2020/12/31 09:42:56;;;;;;;7.43;3.38;;;6.40;99.90;;;;;;5030757;28;20455;-49
2020/12/31 09:45:22;;;;;;;6.82;3.30;;;6.40;99.90;;;;;;5012196;28;20041;-53
2020/12/31 09:47:48;;;;;;;6.10;2.83;;;6.50;99.90;;;;;;5014831;28;20764;-48
2020/12/31 09:50:14;;;;;;;4.35;2.35;;;6.60;99.90;;;;;;5022860;28;20059;-49
2020/12/31 09:52:40;;;;;;;2.95;1.48;;;6.70;99.90;;;;;;5011763;28;20049;-51
2020/12/31 09:55:09;;;;;;;4.00;2.22;;;6.80;99.90;;;;;;5013289;28;20034;-49
2020/12/31 09:57:35;;;;;;;4.45;1.42;;;6.80;99.90;;;;;;5023059;28;20542;-52
2020/12/31 10:00:03;;;;;;;5.97;1.10;;;6.80;99.90;;;;;;5028133;28;20110;-47
2020/12/31 10:02:28;;;;;;;2.20;0.85;;;6.80;99.90;;;;;;5022705;28;20228;-50
2020/12/31 10:04:54;;;;;;;3.25;0.90;;;6.80;99.90;;;;;;5024789;28;20495;-51
2020/12/31 10:07:20;;;;;;;1.02;0.40;;;7.00;99.90;;;;;;5026300;28;20030;-53
2020/12/31 10:09:46;;;;;;;4.03;0.47;;;6.90;99.90;;;;;;5015389;28;20022;-50
2020/12/31 10:12:13;;;;;;;1.20;0.45;;;7.00;99.90;;;;;;5023438;28;20038;-50
2020/12/31 10:14:40;;;;;;;4.38;0.60;;;7.10;99.90;;;;;;5018887;28;20584;-53
2020/12/31 10:17:06;;;;;;;1.02;0.30;;;7.10;99.90;;;;;;5030276;28;20485;-48
2020/12/31 10:19:32;;;;;;;1.15;0.32;;;7.10;99.90;;;;;;5017465;28;20128;-53
2020/12/31 10:21:58;;;;;;;2.28;0.40;;;7.20;99.90;;;;;;5015273;28;20451;-51
2020/12/31 10:24:23;;;;;;;1.00;0.40;;;7.20;99.90;;;;;;5023073;28;20517;-53
2020/12/31 10:26:49;;;;;;;1.85;0.55;;;7.20;99.90;;;;;;5030941;28;20082;-49
2020/12/31 10:29:16;;;;;;;2.17;0.70;;;7.30;99.90;;;;;;5030454;28;20033;-50
2020/12/31 10:31:43;;;;;;;1.23;0.50;;;7.40;99.90;;;;;;5030540;28;20040;-49
2020/12/31 10:34:11;;;;;;;4.38;1.48;;;7.50;99.90;;;;;;5022760;28;20036;-50
2020/12/31 10:36:38;;;;;;;3.65;1.00;;;7.60;99.90;;;;;;5021449;28;20041;-53
2020/12/31 10:39:05;;;;;;;3.78;1.30;;;7.60;99.90;;;;;;5027387;28;20026;-51
2020/12/31 10:41:30;;;;;;;2.35;0.65;;;7.60;99.90;;;;;;5030628;28;20041;-49
2020/12/31 10:43:59;;;;;;;4.75;0.60;;;7.60;99.90;;;;;;5027385;28;20053;-48
2020/12/31 10:46:27;;;;;;;2.45;0.80;;;7.70;99.90;;;;;;5028076;28;20044;-51
2020/12/31 10:48:53;;;;;;;2.28;0.77;;;7.80;99.90;;;;;;5030151;28;20389;-53
2020/12/31 10:51:20;;;;;;;5.72;0.45;;;7.80;99.90;;;;;;5030004;28;20040;-47
2020/12/31 10:53:46;;;;;;;1.08;0.25;;;7.80;99.90;;;;;;5030060;28;20111;-49
2020/12/31 10:56:17;;;;;;;0.90;0.20;;;7.80;99.90;;;;;;5028442;28;20057;-51
2020/12/31 10:58:43;;;;;;;1.30;0.20;;;7.80;99.90;;;;;;5024961;28;20069;-51
2020/12/31 11:01:09;;;;;;;1.25;0.20;;;7.80;99.90;;;;;;5030331;28;20029;-52
2020/12/31 11:03:34;;;;;;;2.47;0.20;;;7.80;99.90;;;;;;5029836;28;20156;-50
2020/12/31 11:06:00;;;;;;;0.52;0.10;;;7.90;99.90;;;;;;5029759;28;20116;-48
2020/12/31 11:08:26;;;;;;;1.45;0.20;;;7.90;99.90;;;;;;5022598;28;20068;-47
2020/12/31 11:10:51;;;;;;;0.65;0.10;;;8.00;99.90;;;;;;5010018;28;20045;-56
2020/12/31 11:13:17;;;;;;;0.63;0.20;;;8.10;99.90;;;;;;5009954;28;20030;-51
2020/12/31 11:15:43;;;;;;;2.22;0.28;;;8.20;99.90;;;;;;5010367;28;20042;-53
2020/12/31 11:18:09;;;;;;;2.78;0.20;;;8.30;99.90;;;;;;5010524;28;20064;-50
2020/12/31 11:20:35;;;;;;;2.15;0.30;;;8.30;99.90;;;;;;5010038;28;20418;-54
2020/12/31 11:23:00;;;;;;;0.50;0.17;;;8.20;99.90;;;;;;5009765;28;20077;-53
2020/12/31 11:25:26;;;;;;;1.15;0.20;;;8.20;99.90;;;;;;5009826;28;20038;-48
2020/12/31 11:27:52;;;;;;;0.70;0.10;;;8.20;99.90;;;;;;5009898;28;20145;-49
2020/12/31 11:30:17;;;;;;;0.40;0.15;;;8.10;99.90;;;;;;5010608;28;20096;-49
2020/12/31 11:32:43;;;;;;;0.40;0.08;;;8.00;99.90;;;;;;5009759;28;20128;-51
2020/12/31 11:35:09;;;;;;;1.95;0.10;;;8.00;99.90;;;;;;5009385;28;20041;-51
2020/12/31 11:37:35;;;;;;;0.57;0.10;;;8.10;99.90;;;;;;5009526;28;20394;-48
2020/12/31 11:40:03;;;;;;;1.50;0.10;;;8.10;99.90;;;;;;5010708;28;20038;-47
2020/12/31 11:42:33;;;;;;;1.52;0.20;;;8.10;99.90;;;;;;5027177;28;20049;-47
2020/12/31 11:45:00;;;;;;;0.60;0.10;;;8.20;99.90;;;;;;5029225;28;20255;-47
2020/12/31 11:47:25;;;;;;;0.28;0.00;;;8.30;99.90;;;;;;5027717;28;20117;-50
2020/12/31 11:49:52;;;;;;;0.17;0.00;;;8.40;99.90;;;;;;5009788;28;20476;-55
2020/12/31 11:52:17;;;;;;;0.75;0.10;;;8.50;99.90;;;;;;4995013;28;20052;-48
2020/12/31 11:54:43;;;;;;;0.25;0.00;;;8.60;99.90;;;;;;5007572;28;20485;-48
2020/12/31 11:57:09;;;;;;;0.20;0.00;;;8.60;99.90;;;;;;5007384;28;20063;-52
2020/12/31 11:59:35;;;;;;;0.60;0.00;;;8.60;99.90;;;;;;5001933;28;20132;-51
2020/12/31 12:02:01;;;;;;;0.13;0.00;;;8.60;99.90;;;;;;5009274;28;20033;-51
2020/12/31 12:04:26;;;;;;;0.32;0.10;;;8.50;99.90;;;;;;5000216;28;20033;-47
2020/12/31 12:06:54;;;;;;;1.58;0.30;;;8.40;99.90;;;;;;5005203;28;20381;-48
2020/12/31 12:09:23;;;;;;;0.55;0.20;;;8.40;99.90;;;;;;5008800;28;20070;-50
2020/12/31 12:11:49;;;;;;;0.30;0.10;;;8.40;99.90;;;;;;5009683;28;20030;-51
2020/12/31 12:14:16;;;;;;;1.40;0.20;;;8.40;99.90;;;;;;5005228;28;20037;-49
2020/12/31 12:16:47;;;;;;;1.08;0.22;;;8.40;99.90;;;;;;4992541;28;20034;-53
2020/12/31 12:19:17;;;;;;;0.68;0.10;;;8.30;99.90;;;;;;4994923;28;20108;-55
2020/12/31 12:21:43;;;;;;;1.00;0.30;;;8.30;99.90;;;;;;5000932;28;20042;-54
2020/12/31 12:24:09;;;;;;;1.30;0.30;;;8.30;99.90;;;;;;4993279;28;20036;-48
2020/12/31 12:26:36;;;;;;;0.75;0.20;;;8.30;99.90;;;;;;4999554;28;20697;-50
2020/12/31 12:29:04;;;;;;;0.70;0.10;;;8.20;99.90;;;;;;5006392;28;20575;-54
2020/12/31 12:31:34;;;;;;;0.77;0.20;;;8.30;99.90;;;;;;4998730;28;20026;-50
2020/12/31 12:34:00;;;;;;;0.60;0.20;;;8.20;99.90;;;;;;5002918;28;20022;-52
2020/12/31 12:36:26;;;;;;;0.75;0.20;;;8.20;99.90;;;;;;5000268;28;20029;-51
2020/12/31 12:38:52;;;;;;;1.45;0.10;;;8.20;99.90;;;;;;5006669;28;20506;-52
2020/12/31 12:41:19;;;;;;;0.40;0.10;;;8.30;99.90;;;;;;5001046;28;20026;-49
2020/12/31 12:43:44;;;;;;;0.50;0.10;;;8.20;99.90;;;;;;4988935;28;20055;-52
2020/12/31 12:46:18;;;;;;;0.20;0.10;;;8.10;99.90;;;;;;4998833;28;20049;-49
2020/12/31 12:48:44;;;;;;;0.90;0.10;;;8.10;99.90;;;;;;5008715;28;20037;-48
2020/12/31 12:51:10;;;;;;;0.50;0.10;;;8.10;99.90;;;;;;5000332;28;20060;-56
2020/12/31 12:53:37;;;;;;;0.73;0.32;;;8.10;99.90;;;;;;5001342;28;20113;-67
2020/12/31 12:56:04;;;;;;;1.58;0.25;;;8.20;99.90;;;;;;4997783;28;20030;-49
2020/12/31 12:58:29;;;;;;;0.65;0.20;;;8.20;99.90;;;;;;5002747;28;20413;-49
2020/12/31 13:00:55;;;;;;;1.00;0.20;;;8.30;99.90;;;;;;5002844;28;20317;-50
2020/12/31 13:03:21;;;;;;;1.05;0.17;;;8.20;99.90;;;;;;5001613;28;20120;-51